createdAt,value
2022-12-31T00:00:08.655Z,12.44
2022-12-31T00:02:36.248Z,12.29
2022-12-31T00:05:03.442Z,12.38
2022-12-31T00:07:30.033Z,12.48
2022-12-31T00:09:56.611Z,12.43
2022-12-31T00:12:23.249Z,12.40
2022-12-31T00:14:49.809Z,12.52
2022-12-31T00:17:16.414Z,12.55
2022-12-31T00:19:43.679Z,12.59
2022-12-31T00:22:10.274Z,12.71
2022-12-31T00:24:36.826Z,12.65
2022-12-31T00:27:03.491Z,12.56
2022-12-31T00:29:30.028Z,12.64
2022-12-31T00:31:56.629Z,12.71
2022-12-31T00:34:23.305Z,12.76
2022-12-31T00:36:49.932Z,12.81
2022-12-31T00:39:16.512Z,12.82
2022-12-31T00:41:44.099Z,12.93
2022-12-31T00:44:14.495Z,12.71
2022-12-31T00:49:06.908Z,12.65
2022-12-31T00:51:33.744Z,12.66
2022-12-31T00:54:00.480Z,12.69
2022-12-31T00:56:29.099Z,12.63
2022-12-31T00:58:56.024Z,12.60
2022-12-31T01:01:26.032Z,12.66
2022-12-31T01:03:56.348Z,12.67
2022-12-31T01:06:23.285Z,12.64
2022-12-31T01:08:51.139Z,12.59
2022-12-31T01:11:19.871Z,12.67
2022-12-31T01:13:49.601Z,12.64
2022-12-31T01:16:18.073Z,12.65
2022-12-31T01:18:44.719Z,12.57
2022-12-31T01:21:12.630Z,12.58
2022-12-31T01:23:39.876Z,12.62
2022-12-31T01:26:08.972Z,12.52
2022-12-31T01:28:35.620Z,12.59
2022-12-31T01:31:13.663Z,12.49
2022-12-31T01:33:40.286Z,12.51
2022-12-31T01:36:18.949Z,12.34
2022-12-31T01:38:48.395Z,12.18
2022-12-31T01:41:19.175Z,12.07
2022-12-31T01:43:59.382Z,12.07
2022-12-31T01:46:36.163Z,12.14
2022-12-31T01:49:32.453Z,12.13
2022-12-31T01:52:07.448Z,11.99
2022-12-31T01:54:39.637Z,12.08
2022-12-31T01:57:08.191Z,12.00
2022-12-31T01:59:34.777Z,11.92
2022-12-31T02:02:01.890Z,11.99
2022-12-31T02:04:29.264Z,12.11
2022-12-31T02:07:05.339Z,12.21
2022-12-31T02:09:32.532Z,12.00
2022-12-31T02:11:59.252Z,11.97
2022-12-31T02:14:30.687Z,11.97
2022-12-31T02:17:06.050Z,11.87
2022-12-31T02:19:57.624Z,11.93
2022-12-31T02:22:49.436Z,11.89
2022-12-31T02:25:30.015Z,11.86
2022-12-31T02:28:22.866Z,12.04
2022-12-31T02:30:57.382Z,12.14
2022-12-31T02:34:01.057Z,12.09
2022-12-31T02:36:36.584Z,11.95
2022-12-31T02:39:06.071Z,11.98
2022-12-31T02:41:50.784Z,12.12
2022-12-31T02:44:27.542Z,12.28
2022-12-31T02:47:09.333Z,12.31
2022-12-31T02:50:03.490Z,12.39
2022-12-31T02:52:52.001Z,12.50
2022-12-31T02:55:30.585Z,12.55
2022-12-31T02:58:00.052Z,12.60
2022-12-31T03:00:48.788Z,12.59
2022-12-31T03:03:16.002Z,12.86
2022-12-31T03:05:44.526Z,12.88
2022-12-31T03:08:11.129Z,12.78
2022-12-31T03:10:37.724Z,12.77
2022-12-31T03:13:04.430Z,12.77
2022-12-31T03:15:33.294Z,12.82
2022-12-31T03:18:06.985Z,12.83
2022-12-31T03:20:53.529Z,12.86
2022-12-31T03:23:25.010Z,12.90
2022-12-31T03:25:53.267Z,12.98
2022-12-31T03:28:24.195Z,13.16
2022-12-31T03:30:57.411Z,13.16
2022-12-31T03:33:25.606Z,13.14
2022-12-31T03:35:53.187Z,13.20
2022-12-31T03:38:20.465Z,13.38
2022-12-31T03:40:50.660Z,13.41
2022-12-31T03:43:19.263Z,13.53
2022-12-31T03:45:51.674Z,13.51
2022-12-31T03:48:19.623Z,13.53
2022-12-31T03:50:46.231Z,13.40
2022-12-31T03:53:12.822Z,13.39
2022-12-31T03:55:39.469Z,13.43
2022-12-31T03:58:06.519Z,13.43
2022-12-31T04:00:33.153Z,13.53
2022-12-31T04:02:59.870Z,13.62
2022-12-31T04:05:26.464Z,13.60
2022-12-31T04:07:53.095Z,13.58
2022-12-31T04:10:20.351Z,13.64
2022-12-31T04:12:47.212Z,13.64
2022-12-31T04:15:18.198Z,13.77
2022-12-31T04:17:45.031Z,13.80
2022-12-31T04:20:12.020Z,13.67
2022-12-31T04:22:39.351Z,13.49
2022-12-31T04:25:11.200Z,13.47
2022-12-31T04:27:43.532Z,13.50
2022-12-31T04:30:12.527Z,13.54
2022-12-31T04:32:39.089Z,13.81
2022-12-31T04:35:06.219Z,13.85
2022-12-31T04:37:32.799Z,14.14
2022-12-31T04:40:05.462Z,14.08
2022-12-31T04:42:32.699Z,13.95
2022-12-31T04:44:59.272Z,14.03
2022-12-31T04:47:25.838Z,13.91
2022-12-31T04:49:52.385Z,13.98
2022-12-31T04:52:18.987Z,14.16
2022-12-31T04:54:45.519Z,14.01
2022-12-31T04:57:12.142Z,14.15
2022-12-31T04:59:39.629Z,14.18
2022-12-31T05:02:06.419Z,14.09
2022-12-31T05:04:33.372Z,13.78
2022-12-31T05:06:59.945Z,13.67
2022-12-31T05:09:28.230Z,13.75
2022-12-31T05:11:55.109Z,13.90
2022-12-31T05:14:22.164Z,13.73
2022-12-31T05:16:48.918Z,13.50
2022-12-31T05:19:15.660Z,13.42
2022-12-31T05:21:42.229Z,13.32
2022-12-31T05:24:08.952Z,13.39
2022-12-31T05:26:35.532Z,13.45
2022-12-31T05:29:02.092Z,13.48
2022-12-31T05:31:28.719Z,13.60
2022-12-31T05:33:55.278Z,13.45
2022-12-31T05:36:21.942Z,13.40
2022-12-31T05:38:48.519Z,13.31
2022-12-31T05:41:15.110Z,13.22
2022-12-31T05:43:41.646Z,13.25
2022-12-31T05:46:08.604Z,13.29
2022-12-31T05:48:35.209Z,13.22
2022-12-31T05:51:01.838Z,13.08
2022-12-31T05:53:28.411Z,13.08
2022-12-31T05:55:55.002Z,13.09
2022-12-31T05:58:21.639Z,13.19
2022-12-31T06:00:48.238Z,13.33
2022-12-31T06:03:14.909Z,13.24
2022-12-31T06:05:42.909Z,13.31
2022-12-31T06:08:11.101Z,13.39
2022-12-31T06:10:38.893Z,13.28
2022-12-31T06:13:05.563Z,13.32
2022-12-31T06:15:32.392Z,13.30
2022-12-31T06:17:59.045Z,13.18
2022-12-31T06:20:25.658Z,13.18
2022-12-31T06:22:52.322Z,13.19
2022-12-31T06:25:19.063Z,13.14
2022-12-31T06:27:45.724Z,13.12
2022-12-31T06:30:12.988Z,13.09
2022-12-31T06:32:40.685Z,13.07
2022-12-31T06:35:07.782Z,13.14
2022-12-31T06:37:34.370Z,13.19
2022-12-31T06:40:01.286Z,13.07
2022-12-31T06:42:30.826Z,13.05
2022-12-31T06:44:58.453Z,13.11
2022-12-31T06:47:25.722Z,13.14
2022-12-31T06:49:53.281Z,13.28
2022-12-31T06:52:20.590Z,13.41
2022-12-31T06:54:47.811Z,13.39
2022-12-31T06:57:14.846Z,13.41
2022-12-31T06:59:41.907Z,13.35
2022-12-31T07:02:22.730Z,13.28
2022-12-31T07:04:58.198Z,13.26
2022-12-31T07:07:36.980Z,13.26
2022-12-31T07:10:27.341Z,13.33
2022-12-31T07:13:13.088Z,13.29
2022-12-31T07:16:13.783Z,13.34
2022-12-31T07:18:56.459Z,13.39
2022-12-31T07:21:35.862Z,13.58
2022-12-31T07:24:03.354Z,13.56
2022-12-31T07:26:40.944Z,13.53
2022-12-31T07:29:11.934Z,13.65
2022-12-31T07:31:57.596Z,13.56
2022-12-31T07:34:45.098Z,13.46
2022-12-31T07:37:20.523Z,13.36
2022-12-31T07:40:20.916Z,13.41
2022-12-31T07:43:14.921Z,13.45
2022-12-31T07:45:50.145Z,13.43
2022-12-31T07:48:27.810Z,13.49
2022-12-31T07:50:56.477Z,13.66
2022-12-31T07:53:24.854Z,13.62
2022-12-31T07:55:57.237Z,13.60
2022-12-31T07:58:38.881Z,13.53
2022-12-31T08:01:05.994Z,13.54
2022-12-31T08:03:38.629Z,13.60
2022-12-31T08:06:14.399Z,13.63
2022-12-31T08:09:02.121Z,13.73
2022-12-31T08:11:53.772Z,13.90
2022-12-31T08:14:20.642Z,13.94
2022-12-31T08:16:47.629Z,13.86
2022-12-31T08:19:23.864Z,13.81
2022-12-31T08:22:22.092Z,13.82
2022-12-31T08:25:03.974Z,13.77
2022-12-31T08:27:55.339Z,13.70
2022-12-31T08:30:23.535Z,13.70
2022-12-31T08:33:05.376Z,13.78
2022-12-31T08:35:54.067Z,13.77
2022-12-31T08:38:34.812Z,13.77
2022-12-31T08:41:06.911Z,13.93
2022-12-31T08:43:55.159Z,14.29
2022-12-31T08:46:32.944Z,14.72
2022-12-31T08:49:00.347Z,14.87
2022-12-31T08:51:27.773Z,15.14
2022-12-31T08:53:55.375Z,14.92
2022-12-31T08:56:58.585Z,14.69
2022-12-31T08:59:47.978Z,14.42
2022-12-31T09:02:47.735Z,14.31
2022-12-31T09:05:26.859Z,14.09
2022-12-31T09:08:01.008Z,14.23
2022-12-31T09:10:34.982Z,14.34
2022-12-31T09:13:20.500Z,14.39
2022-12-31T09:16:27.830Z,14.52
2022-12-31T09:18:54.445Z,14.66
2022-12-31T09:21:21.206Z,14.89
2022-12-31T09:23:48.049Z,15.04
2022-12-31T09:26:39.341Z,15.16
2022-12-31T09:29:30.618Z,15.10
2022-12-31T09:32:29.371Z,15.79
2022-12-31T09:35:23.569Z,16.32
2022-12-31T09:38:16.268Z,16.80
2022-12-31T09:41:16.857Z,17.56
2022-12-31T09:44:10.979Z,17.65
2022-12-31T09:46:49.756Z,17.95
2022-12-31T09:49:55.558Z,17.97
2022-12-31T09:52:25.161Z,18.06
2022-12-31T09:55:19.888Z,18.38
2022-12-31T09:58:34.355Z,18.52
2022-12-31T10:01:19.174Z,18.56
2022-12-31T10:04:02.942Z,18.50
2022-12-31T10:06:56.878Z,18.69
2022-12-31T10:09:30.495Z,19.05
2022-12-31T10:12:16.349Z,18.81
2022-12-31T10:15:32.726Z,19.48
2022-12-31T10:18:14.494Z,19.55
2022-12-31T10:20:54.522Z,19.77
2022-12-31T10:23:40.974Z,19.79
2022-12-31T10:26:20.222Z,20.01
2022-12-31T10:28:52.930Z,19.60
2022-12-31T10:31:40.071Z,19.77
2022-12-31T10:34:25.439Z,20.31
2022-12-31T10:37:17.181Z,20.27
2022-12-31T10:39:58.868Z,20.60
2022-12-31T10:43:20.656Z,20.81
2022-12-31T10:46:05.273Z,21.21
2022-12-31T10:48:47.885Z,20.65
2022-12-31T10:51:34.803Z,20.25
2022-12-31T10:54:36.891Z,20.33
2022-12-31T10:57:07.352Z,20.47
2022-12-31T10:59:45.876Z,20.53
2022-12-31T11:02:32.806Z,20.20
2022-12-31T11:05:36.928Z,19.86
2022-12-31T11:08:15.527Z,19.45
2022-12-31T11:11:00.431Z,19.07
2022-12-31T11:13:51.225Z,19.27
2022-12-31T11:17:01.580Z,19.69
2022-12-31T11:19:40.232Z,19.90
2022-12-31T11:22:06.842Z,20.09
2022-12-31T11:24:41.124Z,20.08
2022-12-31T11:27:29.087Z,19.60
2022-12-31T11:30:04.828Z,19.11
2022-12-31T11:32:37.393Z,18.93
2022-12-31T11:35:16.463Z,19.16
2022-12-31T11:38:28.132Z,19.15
2022-12-31T11:41:13.831Z,19.10
2022-12-31T11:43:52.439Z,19.01
2022-12-31T11:46:33.908Z,19.01
2022-12-31T11:49:30.252Z,18.96
2022-12-31T11:52:24.715Z,19.54
2022-12-31T11:55:26.230Z,21.02
2022-12-31T11:57:53.441Z,21.96
2022-12-31T12:00:26.480Z,22.64
2022-12-31T12:02:56.530Z,23.16
2022-12-31T12:05:25.340Z,24.01
2022-12-31T12:07:53.334Z,24.66
2022-12-31T12:10:35.191Z,24.99
2022-12-31T12:13:13.220Z,24.83
2022-12-31T12:15:44.703Z,24.98
2022-12-31T12:18:24.437Z,25.05
2022-12-31T12:20:51.289Z,25.29
2022-12-31T12:23:25.287Z,25.49
2022-12-31T12:25:52.913Z,25.22
2022-12-31T12:28:25.733Z,24.84
2022-12-31T12:31:03.167Z,25.04
2022-12-31T12:33:40.830Z,25.47
2022-12-31T12:36:13.800Z,25.96
2022-12-31T12:38:40.621Z,26.55
2022-12-31T12:41:20.259Z,26.68
2022-12-31T12:43:47.050Z,26.45
2022-12-31T12:46:41.336Z,26.43
2022-12-31T12:49:40.487Z,26.98
2022-12-31T12:52:28.956Z,27.36
2022-12-31T12:55:14.733Z,26.87
2022-12-31T12:57:53.452Z,26.47
2022-12-31T13:00:29.684Z,26.07
2022-12-31T13:03:16.424Z,25.57
2022-12-31T13:05:51.489Z,25.11
2022-12-31T13:08:35.571Z,24.67
2022-12-31T13:11:15.656Z,23.48
2022-12-31T13:14:00.501Z,22.79
2022-12-31T13:16:48.937Z,22.27
2022-12-31T13:19:30.653Z,22.01
2022-12-31T13:22:34.206Z,21.44
2022-12-31T13:25:27.389Z,21.07
2022-12-31T13:27:57.278Z,20.77
2022-12-31T13:30:30.794Z,20.72
2022-12-31T13:33:02.023Z,20.28
2022-12-31T13:35:49.050Z,20.08
2022-12-31T13:38:29.209Z,19.79
2022-12-31T13:41:11.751Z,19.80
2022-12-31T13:43:50.829Z,19.66
2022-12-31T13:46:39.521Z,19.45
2022-12-31T13:49:14.336Z,19.31
2022-12-31T13:51:48.395Z,19.32
2022-12-31T13:54:17.938Z,19.24
2022-12-31T13:56:46.078Z,19.15
2022-12-31T13:59:35.345Z,19.10
2022-12-31T14:02:26.149Z,18.90
2022-12-31T14:05:03.210Z,18.54
2022-12-31T14:07:45.166Z,18.31
2022-12-31T14:10:21.633Z,17.65
2022-12-31T14:12:59.258Z,16.94
2022-12-31T14:15:35.142Z,16.73
2022-12-31T14:18:07.565Z,16.40
2022-12-31T14:20:47.042Z,15.97
2022-12-31T14:23:13.621Z,15.93
2022-12-31T14:25:49.751Z,15.46
2022-12-31T14:28:34.833Z,15.01
2022-12-31T14:31:36.700Z,14.52
2022-12-31T14:34:44.916Z,14.36
2022-12-31T14:37:19.748Z,14.35
2022-12-31T14:40:18.164Z,14.17
2022-12-31T14:43:13.233Z,13.86
2022-12-31T14:46:25.457Z,13.70
2022-12-31T14:49:07.040Z,13.68
2022-12-31T14:51:36.983Z,13.63
2022-12-31T14:54:03.967Z,13.57
2022-12-31T14:56:40.093Z,13.44
2022-12-31T14:59:35.679Z,13.30
2022-12-31T15:02:29.415Z,13.17
2022-12-31T15:05:16.196Z,12.99
2022-12-31T15:07:48.639Z,12.59
2022-12-31T15:10:22.750Z,12.57
2022-12-31T15:12:55.277Z,12.56
2022-12-31T15:15:56.638Z,12.51
2022-12-31T15:18:49.368Z,12.39
2022-12-31T15:21:31.059Z,12.33
2022-12-31T15:23:57.991Z,12.27
2022-12-31T15:26:34.680Z,12.17
2022-12-31T15:29:02.572Z,12.12
2022-12-31T15:31:31.531Z,12.07
2022-12-31T15:34:02.803Z,12.02
2022-12-31T15:36:32.298Z,11.98
2022-12-31T15:39:10.959Z,11.89
2022-12-31T15:42:27.293Z,11.77
2022-12-31T15:44:32.732Z,11.71
2022-12-31T15:47:17.385Z,11.72
2022-12-31T15:49:46.656Z,11.75
2022-12-31T15:52:22.531Z,11.74
2022-12-31T15:54:55.968Z,11.68
2022-12-31T15:57:41.486Z,11.60
2022-12-31T16:00:19.928Z,11.48
2022-12-31T16:02:48.867Z,11.36
2022-12-31T16:05:26.879Z,11.28
2022-12-31T16:07:58.319Z,11.15
2022-12-31T16:10:29.368Z,11.06
2022-12-31T16:12:57.388Z,10.95
2022-12-31T16:15:32.797Z,10.89
2022-12-31T16:18:02.554Z,11.06
2022-12-31T16:20:32.010Z,10.89
2022-12-31T16:23:02.232Z,10.79
2022-12-31T16:25:32.889Z,10.69
2022-12-31T16:28:02.058Z,10.63
2022-12-31T16:30:31.105Z,10.65
2022-12-31T16:33:03.954Z,10.65
2022-12-31T16:35:36.839Z,10.67
2022-12-31T16:38:12.775Z,10.54
2022-12-31T16:40:41.339Z,10.43
2022-12-31T16:43:44.501Z,10.31
2022-12-31T16:46:20.181Z,10.22
2022-12-31T16:48:59.403Z,10.16
2022-12-31T16:51:30.859Z,10.16
2022-12-31T16:53:58.742Z,10.11
2022-12-31T16:56:38.464Z,9.98
2022-12-31T16:59:15.061Z,9.94
2022-12-31T17:01:42.573Z,9.97
2022-12-31T17:04:12.127Z,9.99
2022-12-31T17:06:38.898Z,9.90
2022-12-31T17:09:18.569Z,9.93
2022-12-31T17:11:53.910Z,9.94
2022-12-31T17:14:27.298Z,9.92
2022-12-31T17:17:07.512Z,9.84
2022-12-31T17:19:48.889Z,9.78
2022-12-31T17:22:42.589Z,9.81
2022-12-31T17:25:21.802Z,9.89
2022-12-31T17:27:59.115Z,9.84
2022-12-31T17:30:35.141Z,9.78
2022-12-31T17:33:09.237Z,9.74
2022-12-31T17:35:41.944Z,9.65
2022-12-31T17:38:17.788Z,9.54
2022-12-31T17:40:53.594Z,9.47
2022-12-31T17:43:23.464Z,9.48
2022-12-31T17:45:51.429Z,9.10
2022-12-31T17:48:20.539Z,8.89
2022-12-31T17:50:58.176Z,8.81
2022-12-31T17:53:25.180Z,8.74
2022-12-31T17:55:56.008Z,8.91
2022-12-31T17:58:30.764Z,8.83
2022-12-31T18:00:58.716Z,8.89
2022-12-31T18:03:25.484Z,8.85
2022-12-31T18:05:52.136Z,8.88
2022-12-31T18:08:18.707Z,9.03
2022-12-31T18:10:45.650Z,8.86
2022-12-31T18:13:19.133Z,8.71
2022-12-31T18:15:46.512Z,8.68
2022-12-31T18:18:25.617Z,8.70
2022-12-31T18:21:01.339Z,8.65
2022-12-31T18:23:31.527Z,8.72
2022-12-31T18:25:58.150Z,8.76
2022-12-31T18:28:24.725Z,8.78
2022-12-31T18:30:52.152Z,8.75
2022-12-31T18:33:22.420Z,8.85
2022-12-31T18:36:09.897Z,8.80
2022-12-31T18:38:37.189Z,8.72
2022-12-31T18:41:04.190Z,8.69
2022-12-31T18:43:30.814Z,8.58
2022-12-31T18:45:57.826Z,8.34
2022-12-31T18:48:24.464Z,8.34
2022-12-31T18:50:51.210Z,8.23
2022-12-31T18:53:20.637Z,8.16
2022-12-31T18:55:50.737Z,8.14
2022-12-31T18:58:17.516Z,8.32
2022-12-31T19:00:45.683Z,8.53
2022-12-31T19:03:38.548Z,8.26
2022-12-31T19:06:05.254Z,8.16
2022-12-31T19:08:32.999Z,8.18
2022-12-31T19:11:01.053Z,8.11
2022-12-31T19:13:27.608Z,8.11
2022-12-31T19:15:55.527Z,8.08
2022-12-31T19:18:22.156Z,8.13
2022-12-31T19:20:48.828Z,8.19
2022-12-31T19:23:18.023Z,8.22
2022-12-31T19:25:46.429Z,8.22
2022-12-31T19:28:25.045Z,8.24
2022-12-31T19:30:52.627Z,8.24
2022-12-31T19:33:19.731Z,8.25
2022-12-31T19:35:47.017Z,8.25
2022-12-31T19:38:26.730Z,8.26
2022-12-31T19:40:53.859Z,8.30
2022-12-31T19:43:22.302Z,8.32
2022-12-31T19:45:50.757Z,8.24
2022-12-31T19:48:30.455Z,8.11
2022-12-31T19:50:59.519Z,8.02
2022-12-31T19:53:27.307Z,7.87
2022-12-31T19:55:54.262Z,7.93
2022-12-31T19:58:25.399Z,8.06
2022-12-31T20:00:58.209Z,7.91
2022-12-31T20:03:28.604Z,7.90
2022-12-31T20:06:07.568Z,7.93
2022-12-31T20:08:36.330Z,7.70
2022-12-31T20:11:12.484Z,7.56
2022-12-31T20:13:40.243Z,7.56
2022-12-31T20:16:12.899Z,7.47
2022-12-31T20:18:40.797Z,7.78
2022-12-31T20:21:19.137Z,7.71
2022-12-31T20:23:45.788Z,7.76
2022-12-31T20:26:12.719Z,7.67
2022-12-31T20:28:39.553Z,7.72
2022-12-31T20:31:08.312Z,7.72
2022-12-31T20:33:35.144Z,7.67
2022-12-31T20:36:06.730Z,7.59
2022-12-31T20:38:33.515Z,7.63
2022-12-31T20:41:08.300Z,7.72
2022-12-31T20:43:35.719Z,7.76
2022-12-31T20:46:12.677Z,7.77
2022-12-31T20:48:41.466Z,7.70
2022-12-31T20:51:08.120Z,7.68
2022-12-31T20:53:34.798Z,7.67
2022-12-31T20:56:08.815Z,7.75
2022-12-31T20:58:36.048Z,7.72
2022-12-31T21:01:07.025Z,7.66
2022-12-31T21:06:25.345Z,7.49
2022-12-31T21:08:52.295Z,7.51
2022-12-31T21:11:37.445Z,7.51
2022-12-31T21:14:04.119Z,7.54
2022-12-31T21:16:30.731Z,7.52
2022-12-31T21:18:57.469Z,7.46
2022-12-31T21:21:24.473Z,7.52
2022-12-31T21:23:51.201Z,7.45
2022-12-31T21:26:17.850Z,7.32
2022-12-31T21:28:44.915Z,7.47
2022-12-31T21:31:14.340Z,7.40
2022-12-31T21:33:45.796Z,7.40
2022-12-31T21:36:13.097Z,7.37
2022-12-31T21:38:39.943Z,7.36
2022-12-31T21:41:08.451Z,7.36
2022-12-31T21:43:35.266Z,7.32
2022-12-31T21:46:06.916Z,7.33
2022-12-31T21:48:33.665Z,7.20
2022-12-31T21:51:14.847Z,7.12
2022-12-31T21:53:41.504Z,7.12
2022-12-31T21:56:09.314Z,7.05
2022-12-31T21:58:37.805Z,7.07
2022-12-31T22:01:23.470Z,7.03
2022-12-31T22:03:50.491Z,7.11
2022-12-31T22:06:23.975Z,7.08
2022-12-31T22:08:53.116Z,6.96
2022-12-31T22:11:21.451Z,6.99
2022-12-31T22:13:48.313Z,6.91
2022-12-31T22:16:15.074Z,6.77
2022-12-31T22:18:43.954Z,6.66
2022-12-31T22:21:18.276Z,6.63
2022-12-31T22:23:47.764Z,6.50
2022-12-31T22:26:16.234Z,6.30
2022-12-31T22:28:43.894Z,6.11
2022-12-31T22:31:19.880Z,6.09
2022-12-31T22:33:46.978Z,6.14
2022-12-31T22:36:17.166Z,6.23
2022-12-31T22:38:44.799Z,6.25
2022-12-31T22:41:17.645Z,6.29
2022-12-31T22:43:46.845Z,6.34
2022-12-31T22:46:19.949Z,6.35
2022-12-31T22:48:47.409Z,6.44
2022-12-31T22:51:15.722Z,6.53
2022-12-31T22:53:43.514Z,6.63
2022-12-31T22:56:12.361Z,6.67
2022-12-31T22:58:39.049Z,6.67
2022-12-31T23:01:07.440Z,6.69
2022-12-31T23:03:34.178Z,6.75
2022-12-31T23:06:00.789Z,6.86
2022-12-31T23:08:27.395Z,7.04
2022-12-31T23:11:00.212Z,7.18
2022-12-31T23:13:50.895Z,7.19
2022-12-31T23:16:37.806Z,7.23
2022-12-31T23:19:24.457Z,7.21
2022-12-31T23:22:10.100Z,7.22
2022-12-31T23:24:37.341Z,7.21
2022-12-31T23:27:04.425Z,6.98
2022-12-31T23:29:31.016Z,6.85
2022-12-31T23:31:57.686Z,6.63
2022-12-31T23:34:24.367Z,6.57
2022-12-31T23:36:51.026Z,6.47
2022-12-31T23:39:17.659Z,6.40
2022-12-31T23:41:44.245Z,6.46
2022-12-31T23:44:12.262Z,6.35
2022-12-31T23:46:39.657Z,6.27
2022-12-31T23:49:06.663Z,6.30
2022-12-31T23:51:33.332Z,6.19
2022-12-31T23:54:00.795Z,6.21
2022-12-31T23:56:27.392Z,6.20
2022-12-31T23:58:58.603Z,6.28
